sensor_id;sensor_type;location;lat;lon;timestamp;temperature;humidity
54409;DHT22;40315;48.620;9.828;2023-07-09T00:00:18;20.40;99.90
54409;DHT22;40315;48.620;9.828;2023-07-09T00:02:48;20.20;99.90
54409;DHT22;40315;48.620;9.828;2023-07-09T00:05:17;20.10;99.90
54409;DHT22;40315;48.620;9.828;2023-07-09T00:07:44;20.00;99.90
54409;DHT22;40315;48.620;9.828;2023-07-09T00:10:17;19.90;99.90
54409;DHT22;40315;48.620;9.828;2023-07-09T00:12:45;20.00;99.90
54409;DHT22;40315;48.620;9.828;2023-07-09T00:15:12;20.10;99.90
54409;DHT22;40315;48.620;9.828;2023-07-09T00:17:42;20.20;99.90
54409;DHT22;40315;48.620;9.828;2023-07-09T00:20:12;20.10;99.90
54409;DHT22;40315;48.620;9.828;2023-07-09T00:22:40;19.80;99.90
54409;DHT22;40315;48.620;9.828;2023-07-09T00:25:09;19.70;99.90
54409;DHT22;40315;48.620;9.828;2023-07-09T00:27:40;19.50;99.90
54409;DHT22;40315;48.620;9.828;2023-07-09T00:30:15;19.30;99.90
54409;DHT22;40315;48.620;9.828;2023-07-09T00:32:44;19.20;99.90
54409;DHT22;40315;48.620;9.828;2023-07-09T00:35:13;19.10;99.90
54409;DHT22;40315;48.620;9.828;2023-07-09T00:37:42;19.10;99.90
54409;DHT22;40315;48.620;9.828;2023-07-09T00:40:15;19.20;99.90
54409;DHT22;40315;48.620;9.828;2023-07-09T00:42:47;19.30;99.90
54409;DHT22;40315;48.620;9.828;2023-07-09T00:45:20;19.20;99.90
54409;DHT22;40315;48.620;9.828;2023-07-09T00:47:55;19.20;99.90
54409;DHT22;40315;48.620;9.828;2023-07-09T00:50:37;19.30;99.90
54409;DHT22;40315;48.620;9.828;2023-07-09T00:53:13;19.40;99.90
54409;DHT22;40315;48.620;9.828;2023-07-09T00:55:46;19.50;99.90
54409;DHT22;40315;48.620;9.828;2023-07-09T00:58:16;19.30;99.90
54409;DHT22;40315;48.620;9.828;2023-07-09T01:03:34;19.10;99.90
54409;DHT22;40315;48.620;9.828;2023-07-09T01:06:02;19.20;99.90
54409;DHT22;40315;48.620;9.828;2023-07-09T01:08:33;19.00;99.90
54409;DHT22;40315;48.620;9.828;2023-07-09T01:11:01;18.90;99.90
54409;DHT22;40315;48.620;9.828;2023-07-09T01:13:29;18.90;99.90
54409;DHT22;40315;48.620;9.828;2023-07-09T01:15:58;18.80;99.90
54409;DHT22;40315;48.620;9.828;2023-07-09T01:18:26;18.80;99.90
54409;DHT22;40315;48.620;9.828;2023-07-09T01:21:01;18.70;99.90
54409;DHT22;40315;48.620;9.828;2023-07-09T01:23:28;18.60;99.90
54409;DHT22;40315;48.620;9.828;2023-07-09T01:25:56;18.50;99.90
54409;DHT22;40315;48.620;9.828;2023-07-09T01:28:26;18.50;99.90
54409;DHT22;40315;48.620;9.828;2023-07-09T01:30:53;18.50;99.90
54409;DHT22;40315;48.620;9.828;2023-07-09T01:33:22;18.40;99.90
54409;DHT22;40315;48.620;9.828;2023-07-09T01:35:49;18.40;99.90
54409;DHT22;40315;48.620;9.828;2023-07-09T01:38:22;18.50;99.90
54409;DHT22;40315;48.620;9.828;2023-07-09T01:40:51;18.60;99.90
54409;DHT22;40315;48.620;9.828;2023-07-09T01:43:18;18.60;99.90
54409;DHT22;40315;48.620;9.828;2023-07-09T01:45:45;18.60;99.90
54409;DHT22;40315;48.620;9.828;2023-07-09T01:54:49;18.50;99.90
54409;DHT22;40315;48.620;9.828;2023-07-09T01:57:19;18.40;99.90
54409;DHT22;40315;48.620;9.828;2023-07-09T01:59:49;18.30;99.90
54409;DHT22;40315;48.620;9.828;2023-07-09T02:02:16;18.20;99.90
54409;DHT22;40315;48.620;9.828;2023-07-09T02:04:52;18.20;99.90
54409;DHT22;40315;48.620;9.828;2023-07-09T02:07:20;18.20;99.90
54409;DHT22;40315;48.620;9.828;2023-07-09T02:09:49;18.30;99.90
54409;DHT22;40315;48.620;9.828;2023-07-09T02:12:17;18.50;99.90
54409;DHT22;40315;48.620;9.828;2023-07-09T02:14:45;18.40;99.90
54409;DHT22;40315;48.620;9.828;2023-07-09T02:17:13;18.30;99.90
54409;DHT22;40315;48.620;9.828;2023-07-09T02:19:41;18.10;99.90
54409;DHT22;40315;48.620;9.828;2023-07-09T02:22:09;18.00;99.90
54409;DHT22;40315;48.620;9.828;2023-07-09T02:24:39;18.00;99.90
54409;DHT22;40315;48.620;9.828;2023-07-09T02:27:08;17.90;99.90
54409;DHT22;40315;48.620;9.828;2023-07-09T02:29:37;18.00;99.90
54409;DHT22;40315;48.620;9.828;2023-07-09T02:32:05;18.10;99.90
54409;DHT22;40315;48.620;9.828;2023-07-09T02:34:32;18.10;99.90
54409;DHT22;40315;48.620;9.828;2023-07-09T02:37:01;18.00;99.90
54409;DHT22;40315;48.620;9.828;2023-07-09T02:39:28;18.00;99.90
54409;DHT22;40315;48.620;9.828;2023-07-09T02:41:55;17.90;99.90
54409;DHT22;40315;48.620;9.828;2023-07-09T02:44:24;17.80;99.90
54409;DHT22;40315;48.620;9.828;2023-07-09T02:46:51;17.80;99.90
54409;DHT22;40315;48.620;9.828;2023-07-09T02:49:18;17.80;99.90
54409;DHT22;40315;48.620;9.828;2023-07-09T02:51:45;17.80;99.90
54409;DHT22;40315;48.620;9.828;2023-07-09T02:54:12;18.00;99.90
54409;DHT22;40315;48.620;9.828;2023-07-09T02:56:39;18.00;99.90
54409;DHT22;40315;48.620;9.828;2023-07-09T02:59:08;17.90;99.90
54409;DHT22;40315;48.620;9.828;2023-07-09T03:01:39;17.80;99.90
54409;DHT22;40315;48.620;9.828;2023-07-09T03:04:06;17.70;99.90
54409;DHT22;40315;48.620;9.828;2023-07-09T03:06:36;17.70;99.90
54409;DHT22;40315;48.620;9.828;2023-07-09T03:09:04;17.60;99.90
54409;DHT22;40315;48.620;9.828;2023-07-09T03:11:34;17.60;99.90
54409;DHT22;40315;48.620;9.828;2023-07-09T03:14:02;17.50;99.90
54409;DHT22;40315;48.620;9.828;2023-07-09T03:16:33;17.50;99.90
54409;DHT22;40315;48.620;9.828;2023-07-09T03:19:02;17.50;99.90
54409;DHT22;40315;48.620;9.828;2023-07-09T03:21:32;17.40;99.90
54409;DHT22;40315;48.620;9.828;2023-07-09T03:23:59;17.30;99.90
54409;DHT22;40315;48.620;9.828;2023-07-09T03:26:27;17.20;99.90
54409;DHT22;40315;48.620;9.828;2023-07-09T03:28:54;17.20;99.90
54409;DHT22;40315;48.620;9.828;2023-07-09T03:31:22;17.10;99.90
54409;DHT22;40315;48.620;9.828;2023-07-09T03:33:50;17.10;99.90
54409;DHT22;40315;48.620;9.828;2023-07-09T03:36:19;17.10;99.90
54409;DHT22;40315;48.620;9.828;2023-07-09T03:38:46;17.10;99.90
54409;DHT22;40315;48.620;9.828;2023-07-09T03:41:14;17.30;99.90
54409;DHT22;40315;48.620;9.828;2023-07-09T03:43:43;17.60;99.90
54409;DHT22;40315;48.620;9.828;2023-07-09T03:46:10;17.70;99.90
54409;DHT22;40315;48.620;9.828;2023-07-09T03:48:38;17.70;99.90
54409;DHT22;40315;48.620;9.828;2023-07-09T03:51:05;17.60;99.90
54409;DHT22;40315;48.620;9.828;2023-07-09T03:53:33;17.50;99.90
54409;DHT22;40315;48.620;9.828;2023-07-09T03:56:00;17.40;99.90
54409;DHT22;40315;48.620;9.828;2023-07-09T03:58:27;17.30;99.90
54409;DHT22;40315;48.620;9.828;2023-07-09T04:00:57;17.30;99.90
54409;DHT22;40315;48.620;9.828;2023-07-09T04:03:23;17.30;99.90
54409;DHT22;40315;48.620;9.828;2023-07-09T04:05:50;17.30;99.90
54409;DHT22;40315;48.620;9.828;2023-07-09T04:08:17;17.20;99.90
54409;DHT22;40315;48.620;9.828;2023-07-09T04:10:47;17.20;99.90
54409;DHT22;40315;48.620;9.828;2023-07-09T04:13:14;17.10;99.90
54409;DHT22;40315;48.620;9.828;2023-07-09T04:15:41;17.10;99.90
54409;DHT22;40315;48.620;9.828;2023-07-09T04:18:08;17.20;99.90
54409;DHT22;40315;48.620;9.828;2023-07-09T04:20:37;17.30;99.90
54409;DHT22;40315;48.620;9.828;2023-07-09T04:23:05;17.40;99.90
54409;DHT22;40315;48.620;9.828;2023-07-09T04:25:32;17.40;99.90
54409;DHT22;40315;48.620;9.828;2023-07-09T04:28:00;17.50;99.90
54409;DHT22;40315;48.620;9.828;2023-07-09T04:30:27;17.60;99.90
54409;DHT22;40315;48.620;9.828;2023-07-09T04:32:54;17.60;99.90
54409;DHT22;40315;48.620;9.828;2023-07-09T04:35:21;17.60;99.90
54409;DHT22;40315;48.620;9.828;2023-07-09T04:37:49;17.70;99.90
54409;DHT22;40315;48.620;9.828;2023-07-09T04:40:17;17.70;99.90
54409;DHT22;40315;48.620;9.828;2023-07-09T04:42:45;17.80;99.90
54409;DHT22;40315;48.620;9.828;2023-07-09T04:45:14;17.80;99.90
54409;DHT22;40315;48.620;9.828;2023-07-09T04:47:40;17.80;99.90
54409;DHT22;40315;48.620;9.828;2023-07-09T04:50:08;17.40;99.90
54409;DHT22;40315;48.620;9.828;2023-07-09T04:52:38;18.00;99.90
54409;DHT22;40315;48.620;9.828;2023-07-09T04:55:08;18.00;99.90
54409;DHT22;40315;48.620;9.828;2023-07-09T04:57:35;18.10;99.90
54409;DHT22;40315;48.620;9.828;2023-07-09T05:00:05;18.10;99.90
54409;DHT22;40315;48.620;9.828;2023-07-09T05:02:34;18.10;99.90
54409;DHT22;40315;48.620;9.828;2023-07-09T05:05:01;18.10;99.90
54409;DHT22;40315;48.620;9.828;2023-07-09T05:07:30;18.20;99.90
54409;DHT22;40315;48.620;9.828;2023-07-09T05:09:58;18.20;99.90
54409;DHT22;40315;48.620;9.828;2023-07-09T05:12:28;18.20;99.90
54409;DHT22;40315;48.620;9.828;2023-07-09T05:14:55;18.40;99.90
54409;DHT22;40315;48.620;9.828;2023-07-09T05:17:23;19.50;99.90
54409;DHT22;40315;48.620;9.828;2023-07-09T05:19:51;21.00;99.90
54409;DHT22;40315;48.620;9.828;2023-07-09T05:22:21;22.50;99.90
54409;DHT22;40315;48.620;9.828;2023-07-09T05:24:48;24.50;99.90
54409;DHT22;40315;48.620;9.828;2023-07-09T05:27:15;25.80;99.90
54409;DHT22;40315;48.620;9.828;2023-07-09T05:29:41;26.90;99.90
54409;DHT22;40315;48.620;9.828;2023-07-09T05:32:09;28.00;99.90
54409;DHT22;40315;48.620;9.828;2023-07-09T05:34:36;28.90;99.90
54409;DHT22;40315;48.620;9.828;2023-07-09T05:37:06;29.50;99.90
54409;DHT22;40315;48.620;9.828;2023-07-09T05:39:33;30.00;99.20
54409;DHT22;40315;48.620;9.828;2023-07-09T05:42:00;30.00;98.30
54409;DHT22;40315;48.620;9.828;2023-07-09T05:44:27;30.00;98.20
54409;DHT22;40315;48.620;9.828;2023-07-09T05:46:58;30.20;97.70
54409;DHT22;40315;48.620;9.828;2023-07-09T05:49:24;30.10;97.80
54409;DHT22;40315;48.620;9.828;2023-07-09T05:51:54;29.80;97.00
54409;DHT22;40315;48.620;9.828;2023-07-09T05:54:24;29.70;97.80
54409;DHT22;40315;48.620;9.828;2023-07-09T05:56:51;29.50;97.20
54409;DHT22;40315;48.620;9.828;2023-07-09T05:59:20;29.70;97.80
54409;DHT22;40315;48.620;9.828;2023-07-09T06:01:47;29.50;97.20
54409;DHT22;40315;48.620;9.828;2023-07-09T06:04:14;29.20;97.40
54409;DHT22;40315;48.620;9.828;2023-07-09T06:06:42;28.90;97.30
54409;DHT22;40315;48.620;9.828;2023-07-09T06:09:09;28.50;98.00
54409;DHT22;40315;48.620;9.828;2023-07-09T06:11:40;28.20;99.10
54409;DHT22;40315;48.620;9.828;2023-07-09T06:14:09;27.90;99.60
54409;DHT22;40315;48.620;9.828;2023-07-09T06:16:36;27.80;99.90
54409;DHT22;40315;48.620;9.828;2023-07-09T06:19:03;27.80;99.90
54409;DHT22;40315;48.620;9.828;2023-07-09T06:21:30;27.80;99.90
54409;DHT22;40315;48.620;9.828;2023-07-09T06:23:57;28.10;99.90
54409;DHT22;40315;48.620;9.828;2023-07-09T06:26:24;28.30;99.90
54409;DHT22;40315;48.620;9.828;2023-07-09T06:28:53;28.60;99.90
54409;DHT22;40315;48.620;9.828;2023-07-09T06:31:20;28.90;99.50
54409;DHT22;40315;48.620;9.828;2023-07-09T06:33:49;29.30;99.20
54409;DHT22;40315;48.620;9.828;2023-07-09T06:36:17;29.60;98.60
54409;DHT22;40315;48.620;9.828;2023-07-09T06:38:49;29.90;98.00
54409;DHT22;40315;48.620;9.828;2023-07-09T06:41:16;30.20;98.00
54409;DHT22;40315;48.620;9.828;2023-07-09T06:43:43;30.40;97.20
54409;DHT22;40315;48.620;9.828;2023-07-09T06:46:15;31.80;97.10
54409;DHT22;40315;48.620;9.828;2023-07-09T06:48:42;30.70;96.40
54409;DHT22;40315;48.620;9.828;2023-07-09T06:51:09;31.00;96.60
54409;DHT22;40315;48.620;9.828;2023-07-09T06:53:37;31.20;96.60
54409;DHT22;40315;48.620;9.828;2023-07-09T06:56:08;31.40;96.20
54409;DHT22;40315;48.620;9.828;2023-07-09T06:58:36;31.40;94.80
54409;DHT22;40315;48.620;9.828;2023-07-09T07:01:04;31.60;95.70
54409;DHT22;40315;48.620;9.828;2023-07-09T07:03:33;31.60;94.80
54409;DHT22;40315;48.620;9.828;2023-07-09T07:06:01;31.60;95.60
54409;DHT22;40315;48.620;9.828;2023-07-09T07:08:34;31.40;94.50
54409;DHT22;40315;48.620;9.828;2023-07-09T07:11:10;31.40;94.10
54409;DHT22;40315;48.620;9.828;2023-07-09T07:13:39;31.60;95.40
54409;DHT22;40315;48.620;9.828;2023-07-09T07:16:10;31.80;94.20
54409;DHT22;40315;48.620;9.828;2023-07-09T07:18:39;32.00;94.80
54409;DHT22;40315;48.620;9.828;2023-07-09T07:21:06;32.20;94.40
54409;DHT22;40315;48.620;9.828;2023-07-09T07:23:34;32.40;93.90
54409;DHT22;40315;48.620;9.828;2023-07-09T07:26:01;32.40;94.00
54409;DHT22;40315;48.620;9.828;2023-07-09T07:28:30;32.60;94.20
54409;DHT22;40315;48.620;9.828;2023-07-09T07:31:01;32.30;92.90
54409;DHT22;40315;48.620;9.828;2023-07-09T07:33:29;32.30;93.50
54409;DHT22;40315;48.620;9.828;2023-07-09T07:35:57;32.70;93.80
54409;DHT22;40315;48.620;9.828;2023-07-09T07:38:27;33.00;93.00
54409;DHT22;40315;48.620;9.828;2023-07-09T07:40:54;33.30;92.40
54409;DHT22;40315;48.620;9.828;2023-07-09T07:43:20;33.50;92.80
54409;DHT22;40315;48.620;9.828;2023-07-09T07:45:48;33.60;91.80
54409;DHT22;40315;48.620;9.828;2023-07-09T07:48:15;33.30;91.80
54409;DHT22;40315;48.620;9.828;2023-07-09T07:50:42;33.60;92.20
54409;DHT22;40315;48.620;9.828;2023-07-09T07:53:13;33.90;91.20
54409;DHT22;40315;48.620;9.828;2023-07-09T07:55:40;34.00;90.80
54409;DHT22;40315;48.620;9.828;2023-07-09T07:58:10;33.80;89.90
54409;DHT22;40315;48.620;9.828;2023-07-09T08:00:38;33.80;91.10
54409;DHT22;40315;48.620;9.828;2023-07-09T08:03:07;33.90;90.80
54409;DHT22;40315;48.620;9.828;2023-07-09T08:05:34;33.90;89.00
54409;DHT22;40315;48.620;9.828;2023-07-09T08:08:11;34.30;90.90
54409;DHT22;40315;48.620;9.828;2023-07-09T08:10:44;34.10;81.60
54409;DHT22;40315;48.620;9.828;2023-07-09T08:13:11;34.30;84.30
54409;DHT22;40315;48.620;9.828;2023-07-09T08:15:39;34.00;81.30
54409;DHT22;40315;48.620;9.828;2023-07-09T08:18:06;34.00;80.00
54409;DHT22;40315;48.620;9.828;2023-07-09T08:20:35;34.00;79.80
54409;DHT22;40315;48.620;9.828;2023-07-09T08:23:05;33.80;78.50
54409;DHT22;40315;48.620;9.828;2023-07-09T08:25:32;33.60;76.20
54409;DHT22;40315;48.620;9.828;2023-07-09T08:28:00;32.40;75.50
54409;DHT22;40315;48.620;9.828;2023-07-09T08:30:33;33.30;73.70
54409;DHT22;40315;48.620;9.828;2023-07-09T08:33:01;33.40;75.60
54409;DHT22;40315;48.620;9.828;2023-07-09T08:35:28;33.20;72.20
54409;DHT22;40315;48.620;9.828;2023-07-09T08:37:55;33.30;71.40
54409;DHT22;40315;48.620;9.828;2023-07-09T08:40:22;33.20;70.30
54409;DHT22;40315;48.620;9.828;2023-07-09T08:42:55;33.30;70.60
54409;DHT22;40315;48.620;9.828;2023-07-09T08:45:32;33.50;71.00
54409;DHT22;40315;48.620;9.828;2023-07-09T08:48:04;33.50;67.00
54409;DHT22;40315;48.620;9.828;2023-07-09T08:50:36;33.40;67.70
54409;DHT22;40315;48.620;9.828;2023-07-09T08:53:11;33.50;66.60
54409;DHT22;40315;48.620;9.828;2023-07-09T08:55:41;33.30;68.80
54409;DHT22;40315;48.620;9.828;2023-07-09T08:58:20;33.30;65.50
54409;DHT22;40315;48.620;9.828;2023-07-09T09:00:54;33.20;64.10
54409;DHT22;40315;48.620;9.828;2023-07-09T09:03:29;33.10;64.00
54409;DHT22;40315;48.620;9.828;2023-07-09T09:05:59;33.20;61.10
54409;DHT22;40315;48.620;9.828;2023-07-09T09:08:37;33.30;61.60
54409;DHT22;40315;48.620;9.828;2023-07-09T09:11:12;33.40;62.10
54409;DHT22;40315;48.620;9.828;2023-07-09T09:13:43;33.10;61.10
54409;DHT22;40315;48.620;9.828;2023-07-09T09:16:17;33.20;60.60
54409;DHT22;40315;48.620;9.828;2023-07-09T09:18:49;33.10;60.40
54409;DHT22;40315;48.620;9.828;2023-07-09T09:21:21;33.30;63.40
54409;DHT22;40315;48.620;9.828;2023-07-09T09:23:53;33.40;62.30
54409;DHT22;40315;48.620;9.828;2023-07-09T09:26:27;33.60;62.30
54409;DHT22;40315;48.620;9.828;2023-07-09T09:28:55;33.50;59.90
54409;DHT22;40315;48.620;9.828;2023-07-09T09:31:25;33.50;61.80
54409;DHT22;40315;48.620;9.828;2023-07-09T09:33:53;33.60;59.20
54409;DHT22;40315;48.620;9.828;2023-07-09T09:36:24;33.80;59.00
54409;DHT22;40315;48.620;9.828;2023-07-09T09:38:52;34.10;58.40
54409;DHT22;40315;48.620;9.828;2023-07-09T09:41:23;34.40;58.90
54409;DHT22;40315;48.620;9.828;2023-07-09T09:43:54;34.40;58.60
54409;DHT22;40315;48.620;9.828;2023-07-09T09:46:27;34.60;59.90
54409;DHT22;40315;48.620;9.828;2023-07-09T09:48:55;34.30;55.50
54409;DHT22;40315;48.620;9.828;2023-07-09T09:51:23;33.80;55.50
54409;DHT22;40315;48.620;9.828;2023-07-09T09:53:52;33.80;55.90
54409;DHT22;40315;48.620;9.828;2023-07-09T09:56:27;34.10;56.40
54409;DHT22;40315;48.620;9.828;2023-07-09T09:58:55;34.60;58.50
54409;DHT22;40315;48.620;9.828;2023-07-09T10:01:28;35.20;55.40
54409;DHT22;40315;48.620;9.828;2023-07-09T10:03:57;35.50;55.80
54409;DHT22;40315;48.620;9.828;2023-07-09T10:06:34;35.20;53.30
54409;DHT22;40315;48.620;9.828;2023-07-09T10:09:07;35.20;53.80
54409;DHT22;40315;48.620;9.828;2023-07-09T10:11:45;35.10;54.10
54409;DHT22;40315;48.620;9.828;2023-07-09T10:14:26;34.80;54.80
54409;DHT22;40315;48.620;9.828;2023-07-09T10:17:00;35.20;55.30
54409;DHT22;40315;48.620;9.828;2023-07-09T10:19:35;35.50;55.40
54409;DHT22;40315;48.620;9.828;2023-07-09T10:22:10;35.40;55.60
54409;DHT22;40315;48.620;9.828;2023-07-09T10:24:49;35.50;56.00
54409;DHT22;40315;48.620;9.828;2023-07-09T10:27:36;35.30;55.40
54409;DHT22;40315;48.620;9.828;2023-07-09T10:30:30;35.60;56.10
54409;DHT22;40315;48.620;9.828;2023-07-09T10:33:08;35.90;54.30
54409;DHT22;40315;48.620;9.828;2023-07-09T10:35:40;35.60;52.40
54409;DHT22;40315;48.620;9.828;2023-07-09T10:38:22;35.20;53.60
54409;DHT22;40315;48.620;9.828;2023-07-09T10:40:56;35.20;53.50
54409;DHT22;40315;48.620;9.828;2023-07-09T10:43:30;35.50;54.00
54409;DHT22;40315;48.620;9.828;2023-07-09T10:46:02;36.00;55.30
54409;DHT22;40315;48.620;9.828;2023-07-09T10:48:37;36.00;54.20
54409;DHT22;40315;48.620;9.828;2023-07-09T10:51:16;36.00;55.00
54409;DHT22;40315;48.620;9.828;2023-07-09T10:53:45;36.20;55.10
54409;DHT22;40315;48.620;9.828;2023-07-09T10:56:16;36.60;54.20
54409;DHT22;40315;48.620;9.828;2023-07-09T10:58:51;37.00;53.00
54409;DHT22;40315;48.620;9.828;2023-07-09T11:01:30;36.60;52.00
54409;DHT22;40315;48.620;9.828;2023-07-09T11:04:03;36.90;53.10
54409;DHT22;40315;48.620;9.828;2023-07-09T11:06:38;37.30;53.00
54409;DHT22;40315;48.620;9.828;2023-07-09T11:09:15;37.00;52.60
54409;DHT22;40315;48.620;9.828;2023-07-09T11:11:48;37.30;51.90
54409;DHT22;40315;48.620;9.828;2023-07-09T11:14:23;37.40;51.40
54409;DHT22;40315;48.620;9.828;2023-07-09T11:16:53;37.20;51.70
54409;DHT22;40315;48.620;9.828;2023-07-09T11:19:23;37.00;52.40
54409;DHT22;40315;48.620;9.828;2023-07-09T11:22:14;36.90;51.60
54409;DHT22;40315;48.620;9.828;2023-07-09T11:24:46;37.10;52.70
54409;DHT22;40315;48.620;9.828;2023-07-09T11:27:19;37.10;51.10
54409;DHT22;40315;48.620;9.828;2023-07-09T11:29:48;36.60;50.30
54409;DHT22;40315;48.620;9.828;2023-07-09T11:32:24;36.80;50.70
54409;DHT22;40315;48.620;9.828;2023-07-09T11:34:52;37.00;51.70
54409;DHT22;40315;48.620;9.828;2023-07-09T11:37:24;37.60;49.00
54409;DHT22;40315;48.620;9.828;2023-07-09T11:40:05;38.20;50.90
54409;DHT22;40315;48.620;9.828;2023-07-09T11:42:48;38.00;48.50
54409;DHT22;40315;48.620;9.828;2023-07-09T11:45:19;37.40;49.00
54409;DHT22;40315;48.620;9.828;2023-07-09T11:47:51;37.00;49.90
54409;DHT22;40315;48.620;9.828;2023-07-09T11:50:24;36.80;49.70
54409;DHT22;40315;48.620;9.828;2023-07-09T11:52:55;36.50;50.30
54409;DHT22;40315;48.620;9.828;2023-07-09T11:55:27;36.90;50.30
54409;DHT22;40315;48.620;9.828;2023-07-09T11:57:55;37.40;48.20
54409;DHT22;40315;48.620;9.828;2023-07-09T12:00:27;37.70;47.50
54409;DHT22;40315;48.620;9.828;2023-07-09T12:02:55;37.80;47.00
54409;DHT22;40315;48.620;9.828;2023-07-09T12:05:28;38.30;47.50
54409;DHT22;40315;48.620;9.828;2023-07-09T12:07:56;38.50;46.10
54409;DHT22;40315;48.620;9.828;2023-07-09T12:10:27;37.30;46.10
54409;DHT22;40315;48.620;9.828;2023-07-09T12:12:56;37.40;46.30
54409;DHT22;40315;48.620;9.828;2023-07-09T12:15:25;37.60;48.70
54409;DHT22;40315;48.620;9.828;2023-07-09T12:17:58;37.40;46.00
54409;DHT22;40315;48.620;9.828;2023-07-09T12:20:29;37.20;49.90
54409;DHT22;40315;48.620;9.828;2023-07-09T12:23:00;37.70;47.30
54409;DHT22;40315;48.620;9.828;2023-07-09T12:25:30;37.90;47.60
54409;DHT22;40315;48.620;9.828;2023-07-09T12:28:00;37.70;47.80
54409;DHT22;40315;48.620;9.828;2023-07-09T12:30:32;37.60;46.90
54409;DHT22;40315;48.620;9.828;2023-07-09T12:32:59;37.30;47.10
54409;DHT22;40315;48.620;9.828;2023-07-09T12:35:28;37.40;47.60
54409;DHT22;40315;48.620;9.828;2023-07-09T12:37:56;37.60;46.90
54409;DHT22;40315;48.620;9.828;2023-07-09T12:40:28;37.70;46.90
54409;DHT22;40315;48.620;9.828;2023-07-09T12:42:56;37.80;48.80
54409;DHT22;40315;48.620;9.828;2023-07-09T12:45:23;38.40;46.80
54409;DHT22;40315;48.620;9.828;2023-07-09T12:50:29;38.20;45.00
54409;DHT22;40315;48.620;9.828;2023-07-09T12:53:00;38.00;46.20
54409;DHT22;40315;48.620;9.828;2023-07-09T12:55:30;38.40;45.30
54409;DHT22;40315;48.620;9.828;2023-07-09T12:58:07;38.50;45.30
54409;DHT22;40315;48.620;9.828;2023-07-09T13:03:03;39.50;43.40
54409;DHT22;40315;48.620;9.828;2023-07-09T13:05:31;39.40;43.50
54409;DHT22;40315;48.620;9.828;2023-07-09T13:07:59;38.90;42.10
54409;DHT22;40315;48.620;9.828;2023-07-09T13:10:28;38.50;42.30
54409;DHT22;40315;48.620;9.828;2023-07-09T13:13:02;38.30;43.40
54409;DHT22;40315;48.620;9.828;2023-07-09T13:15:31;38.50;43.60
54409;DHT22;40315;48.620;9.828;2023-07-09T13:18:00;38.50;43.10
54409;DHT22;40315;48.620;9.828;2023-07-09T13:22:58;37.50;42.50
54409;DHT22;40315;48.620;9.828;2023-07-09T13:27:57;37.70;43.20
54409;DHT22;40315;48.620;9.828;2023-07-09T13:30:24;37.60;42.70
54409;DHT22;40315;48.620;9.828;2023-07-09T13:32:51;37.30;42.60
54409;DHT22;40315;48.620;9.828;2023-07-09T13:37:48;37.40;42.50
54409;DHT22;40315;48.620;9.828;2023-07-09T13:40:20;37.80;43.20
54409;DHT22;40315;48.620;9.828;2023-07-09T13:42:48;38.20;41.80
54409;DHT22;40315;48.620;9.828;2023-07-09T13:45:18;38.20;43.20
54409;DHT22;40315;48.620;9.828;2023-07-09T13:47:45;38.10;43.10
54409;DHT22;40315;48.620;9.828;2023-07-09T13:52:42;37.90;41.20
54409;DHT22;40315;48.620;9.828;2023-07-09T13:55:16;38.00;42.20
54409;DHT22;40315;48.620;9.828;2023-07-09T13:57:45;38.00;42.20
54409;DHT22;40315;48.620;9.828;2023-07-09T14:00:15;37.60;42.70
54409;DHT22;40315;48.620;9.828;2023-07-09T14:02:43;37.80;43.00
54409;DHT22;40315;48.620;9.828;2023-07-09T14:05:12;37.80;42.40
54409;DHT22;40315;48.620;9.828;2023-07-09T14:07:41;37.90;42.40
54409;DHT22;40315;48.620;9.828;2023-07-09T14:10:13;37.80;41.50
54409;DHT22;40315;48.620;9.828;2023-07-09T14:12:46;37.80;41.70
54409;DHT22;40315;48.620;9.828;2023-07-09T14:15:17;38.10;42.40
54409;DHT22;40315;48.620;9.828;2023-07-09T14:17:46;38.40;41.90
54409;DHT22;40315;48.620;9.828;2023-07-09T14:20:15;37.80;42.30
54409;DHT22;40315;48.620;9.828;2023-07-09T14:22:44;38.00;41.70
54409;DHT22;40315;48.620;9.828;2023-07-09T14:25:17;38.00;41.70
54409;DHT22;40315;48.620;9.828;2023-07-09T14:27:45;37.90;42.90
54409;DHT22;40315;48.620;9.828;2023-07-09T14:30:18;38.20;42.30
54409;DHT22;40315;48.620;9.828;2023-07-09T14:32:47;38.20;43.20
54409;DHT22;40315;48.620;9.828;2023-07-09T14:35:16;38.10;42.50
54409;DHT22;40315;48.620;9.828;2023-07-09T14:37:44;37.80;41.20
54409;DHT22;40315;48.620;9.828;2023-07-09T14:40:15;38.10;42.90
54409;DHT22;40315;48.620;9.828;2023-07-09T14:42:43;38.10;41.80
54409;DHT22;40315;48.620;9.828;2023-07-09T14:45:19;38.20;42.20
54409;DHT22;40315;48.620;9.828;2023-07-09T14:47:46;38.70;42.60
54409;DHT22;40315;48.620;9.828;2023-07-09T14:50:13;39.00;41.70
54409;DHT22;40315;48.620;9.828;2023-07-09T14:52:42;38.90;41.20
54409;DHT22;40315;48.620;9.828;2023-07-09T14:55:14;39.10;41.60
54409;DHT22;40315;48.620;9.828;2023-07-09T14:57:42;38.30;40.50
54409;DHT22;40315;48.620;9.828;2023-07-09T15:00:13;38.10;41.60
54409;DHT22;40315;48.620;9.828;2023-07-09T15:02:43;37.40;42.00
54409;DHT22;40315;48.620;9.828;2023-07-09T15:05:15;37.20;43.60
54409;DHT22;40315;48.620;9.828;2023-07-09T15:07:42;37.40;43.20
54409;DHT22;40315;48.620;9.828;2023-07-09T15:10:13;37.30;42.30
54409;DHT22;40315;48.620;9.828;2023-07-09T15:12:41;36.90;43.30
54409;DHT22;40315;48.620;9.828;2023-07-09T15:15:16;36.80;42.40
54409;DHT22;40315;48.620;9.828;2023-07-09T15:17:45;36.60;43.30
54409;DHT22;40315;48.620;9.828;2023-07-09T15:20:13;36.80;43.80
54409;DHT22;40315;48.620;9.828;2023-07-09T15:22:43;36.90;43.50
54409;DHT22;40315;48.620;9.828;2023-07-09T15:25:16;37.10;43.50
54409;DHT22;40315;48.620;9.828;2023-07-09T15:27:44;37.30;42.60
54409;DHT22;40315;48.620;9.828;2023-07-09T15:30:14;37.40;42.30
54409;DHT22;40315;48.620;9.828;2023-07-09T15:32:42;37.50;43.50
54409;DHT22;40315;48.620;9.828;2023-07-09T15:35:13;37.40;43.90
54409;DHT22;40315;48.620;9.828;2023-07-09T15:37:40;37.30;43.30
54409;DHT22;40315;48.620;9.828;2023-07-09T15:40:17;37.50;42.00
54409;DHT22;40315;48.620;9.828;2023-07-09T15:42:46;37.40;41.90
54409;DHT22;40315;48.620;9.828;2023-07-09T15:45:14;37.80;43.50
54409;DHT22;40315;48.620;9.828;2023-07-09T15:47:42;38.00;42.10
54409;DHT22;40315;48.620;9.828;2023-07-09T15:50:15;37.70;41.60
54409;DHT22;40315;48.620;9.828;2023-07-09T15:52:44;37.40;42.30
54409;DHT22;40315;48.620;9.828;2023-07-09T15:55:16;37.20;42.90
54409;DHT22;40315;48.620;9.828;2023-07-09T15:57:47;37.60;43.20
54409;DHT22;40315;48.620;9.828;2023-07-09T16:00:16;37.70;42.70
54409;DHT22;40315;48.620;9.828;2023-07-09T16:02:45;37.90;41.10
54409;DHT22;40315;48.620;9.828;2023-07-09T16:05:18;37.80;42.30
54409;DHT22;40315;48.620;9.828;2023-07-09T16:07:46;37.70;42.50
54409;DHT22;40315;48.620;9.828;2023-07-09T16:10:13;37.80;41.90